createdAt,value
2022-11-24T00:00:51.230Z,73.05
2022-11-24T00:03:18.642Z,73.24
2022-11-24T00:05:46.434Z,73.53
2022-11-24T00:08:13.199Z,73.04
2022-11-24T00:10:39.759Z,73.15
2022-11-24T00:13:06.637Z,73.33
2022-11-24T00:15:35.156Z,73.76
2022-11-24T00:18:01.806Z,72.87
2022-11-24T00:20:28.382Z,73.21
2022-11-24T00:22:55.473Z,73.26
2022-11-24T00:25:22.324Z,72.97
2022-11-24T00:27:49.136Z,73.23
2022-11-24T00:30:16.487Z,73.15
2022-11-24T00:32:44.487Z,73.12
2022-11-24T00:35:11.128Z,73.44
2022-11-24T00:37:37.943Z,73.46
2022-11-24T00:40:05.718Z,73.50
2022-11-24T00:42:32.173Z,73.38
2022-11-24T00:44:58.681Z,73.34
2022-11-24T00:47:25.221Z,73.34
2022-11-24T00:49:53.328Z,73.38
2022-11-24T00:52:19.787Z,73.81
2022-11-24T00:54:46.426Z,73.85
2022-11-24T00:57:12.888Z,73.78
2022-11-24T00:59:39.599Z,73.70
2022-11-24T01:02:06.158Z,73.06
2022-11-24T01:04:33.001Z,73.15
2022-11-24T01:07:01.029Z,73.05
2022-11-24T01:09:27.523Z,73.14
2022-11-24T01:11:54.485Z,73.23
2022-11-24T01:14:22.550Z,72.82
2022-11-24T01:16:49.294Z,72.75
2022-11-24T01:19:16.309Z,72.54
2022-11-24T01:21:42.966Z,72.75
2022-11-24T01:24:11.729Z,72.86
2022-11-24T01:26:38.784Z,72.20
2022-11-24T01:29:05.809Z,72.70
2022-11-24T01:31:32.599Z,72.70
2022-11-24T01:33:59.317Z,72.71
2022-11-24T01:36:25.796Z,72.50
2022-11-24T01:38:52.242Z,72.32
2022-11-24T01:41:21.996Z,72.10
2022-11-24T01:43:49.888Z,71.75
2022-11-24T01:46:22.533Z,71.21
2022-11-24T01:48:53.328Z,71.20
2022-11-24T01:51:23.794Z,71.05
2022-11-24T01:53:53.704Z,70.71
2022-11-24T01:56:21.655Z,70.62
2022-11-24T01:58:49.981Z,70.89
2022-11-24T02:01:16.615Z,70.59
2022-11-24T02:03:45.648Z,70.53
2022-11-24T02:06:14.132Z,70.26
2022-11-24T02:08:45.589Z,70.22
2022-11-24T02:11:12.443Z,70.35
2022-11-24T02:13:42.252Z,70.13
2022-11-24T02:16:11.773Z,70.08
2022-11-24T02:18:39.636Z,70.05
2022-11-24T02:21:07.329Z,69.85
2022-11-24T02:23:42.621Z,70.00
2022-11-24T02:26:17.446Z,70.40
2022-11-24T02:28:45.986Z,69.93
2022-11-24T02:31:13.406Z,69.65
2022-11-24T02:33:40.670Z,69.71
2022-11-24T02:36:07.655Z,69.93
2022-11-24T02:38:35.722Z,69.84
2022-11-24T02:41:05.805Z,69.98
2022-11-24T02:43:35.605Z,69.81
2022-11-24T02:46:03.516Z,70.05
2022-11-24T02:48:30.431Z,69.87
2022-11-24T02:50:56.894Z,70.06
2022-11-24T02:53:23.720Z,70.20
2022-11-24T02:55:50.209Z,70.21
2022-11-24T02:58:17.044Z,70.84
2022-11-24T03:00:43.682Z,70.16
2022-11-24T03:03:11.681Z,70.61
2022-11-24T03:05:38.218Z,70.33
2022-11-24T03:08:04.939Z,70.25
2022-11-24T03:10:31.746Z,69.96
2022-11-24T03:12:58.450Z,70.06
2022-11-24T03:15:24.907Z,69.57
2022-11-24T03:17:54.623Z,69.29
2022-11-24T03:20:22.524Z,69.63
2022-11-24T03:22:49.065Z,69.32
2022-11-24T03:25:15.819Z,69.66
2022-11-24T03:27:42.332Z,69.79
2022-11-24T03:30:09.999Z,70.17
2022-11-24T03:32:36.528Z,70.48
2022-11-24T03:35:03.621Z,71.13
2022-11-24T03:37:31.760Z,70.74
2022-11-24T03:39:58.349Z,71.31
2022-11-24T03:42:24.863Z,71.00
2022-11-24T03:44:51.334Z,71.01
2022-11-24T03:47:17.817Z,71.01
2022-11-24T03:49:44.279Z,71.19
2022-11-24T03:52:10.925Z,70.73
2022-11-24T03:54:38.835Z,70.73
2022-11-24T03:57:05.312Z,70.76
2022-11-24T03:59:31.796Z,69.93
2022-11-24T04:01:58.468Z,70.29
2022-11-24T04:04:25.104Z,69.65
2022-11-24T04:06:51.548Z,69.86
2022-11-24T04:09:18.112Z,69.30
2022-11-24T04:11:46.051Z,69.22
2022-11-24T04:14:13.925Z,69.46
2022-11-24T04:16:40.676Z,69.21
2022-11-24T04:19:07.340Z,68.95
2022-11-24T04:21:34.098Z,68.45
2022-11-24T04:24:00.579Z,69.09
2022-11-24T04:26:27.209Z,68.93
2022-11-24T04:28:55.066Z,69.36
2022-11-24T04:31:21.620Z,69.45
2022-11-24T04:33:48.213Z,69.28
2022-11-24T04:36:14.707Z,69.72
2022-11-24T04:39:25.472Z,69.73
2022-11-24T04:41:27.704Z,69.33
2022-11-24T04:43:55.646Z,69.64
2022-11-24T04:46:22.176Z,69.75
2022-11-24T04:48:48.710Z,69.54
2022-11-24T04:51:15.689Z,69.32
2022-11-24T04:53:42.198Z,69.23
2022-11-24T04:56:09.090Z,69.93
2022-11-24T04:58:36.013Z,69.38
2022-11-24T05:01:06.703Z,69.52
2022-11-24T05:03:33.235Z,69.65
2022-11-24T05:05:59.781Z,69.74
2022-11-24T05:08:29.275Z,69.96
2022-11-24T05:10:57.819Z,69.60
2022-11-24T05:13:24.482Z,69.06
2022-11-24T05:15:51.268Z,68.91
2022-11-24T05:18:19.472Z,68.69
2022-11-24T05:20:45.988Z,68.35
2022-11-24T05:23:12.677Z,68.73
2022-11-24T05:25:40.539Z,69.08
2022-11-24T05:28:10.170Z,68.75
2022-11-24T05:30:39.859Z,68.76
2022-11-24T05:33:07.491Z,68.47
2022-11-24T05:35:36.174Z,68.54
2022-11-24T05:38:12.076Z,68.58
2022-11-24T05:40:38.556Z,68.55
2022-11-24T05:43:05.072Z,69.01
2022-11-24T05:45:31.600Z,68.72
2022-11-24T05:48:04.931Z,68.49
2022-11-24T05:50:31.457Z,68.76
2022-11-24T05:53:03.590Z,68.94
2022-11-24T05:55:33.275Z,69.29
2022-11-24T05:58:00.518Z,69.20
2022-11-24T06:00:29.228Z,69.11
2022-11-24T06:02:57.496Z,69.32
2022-11-24T06:05:24.742Z,68.98
2022-11-24T06:07:51.370Z,69.22
2022-11-24T06:10:21.306Z,68.75
2022-11-24T06:12:50.202Z,68.72
2022-11-24T06:15:19.857Z,69.10
2022-11-24T06:21:24.245Z,69.80
2022-11-24T06:23:51.047Z,69.29
2022-11-24T06:26:18.972Z,69.62
2022-11-24T06:28:45.460Z,69.03
2022-11-24T06:31:12.115Z,68.76
2022-11-24T06:33:38.785Z,69.29
2022-11-24T06:36:07.387Z,68.85
2022-11-24T06:38:35.413Z,68.88
2022-11-24T06:41:03.914Z,68.45
2022-11-24T06:43:32.381Z,68.72
2022-11-24T06:45:59.488Z,68.27
2022-11-24T06:48:26.927Z,67.56
2022-11-24T06:50:54.320Z,67.54
2022-11-24T06:53:21.168Z,68.28
2022-11-24T06:55:47.742Z,67.58
2022-11-24T06:58:14.356Z,67.66
2022-11-24T07:00:42.502Z,67.63
2022-11-24T07:03:14.009Z,67.82
2022-11-24T07:05:40.535Z,68.22
2022-11-24T07:08:08.732Z,68.28
2022-11-24T07:10:38.081Z,67.98
2022-11-24T07:13:07.415Z,68.01
2022-11-24T07:15:34.008Z,67.77
2022-11-24T07:18:02.457Z,67.35
2022-11-24T07:20:29.080Z,67.36
2022-11-24T07:22:56.224Z,67.23
2022-11-24T07:25:22.761Z,66.56
2022-11-24T07:27:49.268Z,65.90
2022-11-24T07:30:16.778Z,65.92
2022-11-24T07:32:43.425Z,65.81
2022-11-24T07:35:11.250Z,65.47
2022-11-24T07:37:37.830Z,65.91
2022-11-24T07:40:05.380Z,65.22
2022-11-24T07:42:32.012Z,64.72
2022-11-24T07:44:58.542Z,64.35
2022-11-24T07:47:25.093Z,63.77
2022-11-24T07:49:51.556Z,64.00
2022-11-24T07:52:19.459Z,64.13
2022-11-24T07:54:45.919Z,63.73
2022-11-24T07:57:12.400Z,64.18
2022-11-24T07:59:39.019Z,64.25
2022-11-24T08:02:05.702Z,64.26
2022-11-24T08:04:32.626Z,64.12
2022-11-24T08:06:59.301Z,64.65
2022-11-24T08:09:27.335Z,64.14
2022-11-24T08:11:53.809Z,64.42
2022-11-24T08:14:20.437Z,64.07
2022-11-24T08:16:47.080Z,63.54
2022-11-24T08:19:13.632Z,63.78
2022-11-24T08:21:40.182Z,64.75
2022-11-24T08:24:07.958Z,64.78
2022-11-24T08:26:36.076Z,63.89
2022-11-24T08:29:02.581Z,64.47
2022-11-24T08:31:29.704Z,63.71
2022-11-24T08:33:56.387Z,64.21
2022-11-24T08:36:22.982Z,63.18
2022-11-24T08:38:54.774Z,62.87
2022-11-24T08:41:25.423Z,63.49
2022-11-24T08:43:53.493Z,63.85
2022-11-24T08:46:20.409Z,63.90
2022-11-24T08:48:48.790Z,64.08
2022-11-24T08:51:17.747Z,63.60
2022-11-24T08:53:44.385Z,63.69
2022-11-24T08:56:13.152Z,63.96
2022-11-24T08:58:40.191Z,63.66
2022-11-24T09:01:09.794Z,63.53
2022-11-24T09:03:36.935Z,63.41
2022-11-24T09:06:04.110Z,63.54
2022-11-24T09:08:31.687Z,63.65
2022-11-24T09:11:00.237Z,63.53
2022-11-24T09:13:26.729Z,63.37
2022-11-24T09:15:53.274Z,63.86
2022-11-24T09:18:21.162Z,63.25
2022-11-24T09:20:47.922Z,62.91
2022-11-24T09:23:14.420Z,63.57
2022-11-24T09:25:41.080Z,62.95
2022-11-24T09:28:07.696Z,62.27
2022-11-24T09:30:34.192Z,62.01
2022-11-24T09:33:00.715Z,61.75
2022-11-24T09:35:28.591Z,61.48
2022-11-24T09:37:55.104Z,61.24
2022-11-24T09:40:22.766Z,61.78
2022-11-24T09:42:59.107Z,61.31
2022-11-24T09:45:57.482Z,61.02
2022-11-24T09:48:26.591Z,60.13
2022-11-24T09:50:57.901Z,61.66
2022-11-24T09:53:31.721Z,61.16
2022-11-24T09:56:02.208Z,59.86
2022-11-24T09:58:38.599Z,58.65
2022-11-24T10:01:12.547Z,59.20
2022-11-24T10:03:42.369Z,60.34
2022-11-24T10:06:20.533Z,59.88
2022-11-24T10:09:03.139Z,59.76
2022-11-24T10:11:36.857Z,59.61
2022-11-24T10:14:41.291Z,58.82
2022-11-24T10:17:16.191Z,58.35
2022-11-24T10:19:47.235Z,59.23
2022-11-24T10:22:30.136Z,58.09
2022-11-24T10:25:20.840Z,57.52
2022-11-24T10:27:52.403Z,57.92
2022-11-24T10:30:21.503Z,57.70
2022-11-24T10:32:49.623Z,57.43
2022-11-24T10:35:19.059Z,57.07
2022-11-24T10:37:57.401Z,57.95
2022-11-24T10:43:22.590Z,57.21
2022-11-24T10:45:50.421Z,57.15
2022-11-24T10:48:22.364Z,56.72
2022-11-24T10:50:48.897Z,56.65
2022-11-24T10:53:24.439Z,56.84
2022-11-24T10:56:04.958Z,57.09
2022-11-24T10:58:37.597Z,56.29
2022-11-24T11:01:20.340Z,56.42
2022-11-24T11:03:49.531Z,56.15
2022-11-24T11:06:22.424Z,55.96
2022-11-24T11:09:11.308Z,55.86
2022-11-24T11:11:38.738Z,55.41
2022-11-24T11:14:07.052Z,55.10
2022-11-24T11:16:35.959Z,55.48
2022-11-24T11:19:20.209Z,54.96
2022-11-24T11:22:00.853Z,54.87
2022-11-24T11:24:29.324Z,54.93
2022-11-24T11:26:59.982Z,54.34
2022-11-24T11:35:06.301Z,54.00
2022-11-24T11:37:33.768Z,54.19
2022-11-24T11:40:02.025Z,54.29
2022-11-24T11:43:01.391Z,54.43
2022-11-24T11:45:28.248Z,54.55
2022-11-24T11:48:03.613Z,54.29
2022-11-24T11:51:06.691Z,53.74
2022-11-24T11:53:33.287Z,53.79
2022-11-24T11:56:11.834Z,53.62
2022-11-24T11:59:13.264Z,53.37
2022-11-24T12:01:56.277Z,53.97
2022-11-24T12:04:36.971Z,54.19
2022-11-24T12:07:34.668Z,53.99
2022-11-24T12:10:10.457Z,53.90
2022-11-24T12:12:55.476Z,54.32
2022-11-24T12:15:30.986Z,54.17
2022-11-24T12:18:21.660Z,54.83
2022-11-24T12:21:03.723Z,54.43
2022-11-24T12:23:41.480Z,54.53
2022-11-24T12:26:17.779Z,54.44
2022-11-24T12:28:54.159Z,54.63
2022-11-24T12:31:29.889Z,54.81
2022-11-24T12:34:18.156Z,55.20
2022-11-24T12:37:04.114Z,55.46
2022-11-24T12:39:35.759Z,55.28
2022-11-24T12:42:10.620Z,56.08
2022-11-24T12:44:53.896Z,55.52
2022-11-24T12:47:27.614Z,55.86
2022-11-24T12:50:03.413Z,55.55
2022-11-24T12:52:34.203Z,55.93
2022-11-24T12:55:02.336Z,55.95
2022-11-24T12:57:36.099Z,55.44
2022-11-24T13:00:07.222Z,55.53
2022-11-24T13:02:50.186Z,56.73
2022-11-24T13:05:25.376Z,56.54
2022-11-24T13:07:56.752Z,55.89
2022-11-24T13:13:15.687Z,55.56
2022-11-24T13:19:08.193Z,56.06
2022-11-24T13:21:47.941Z,56.35
2022-11-24T13:24:24.449Z,56.21
2022-11-24T13:26:53.555Z,56.21
2022-11-24T13:29:38.710Z,56.21
2022-11-24T13:32:42.036Z,56.73
2022-11-24T13:35:15.355Z,56.27
2022-11-24T13:37:49.938Z,56.47
2022-11-24T13:40:45.937Z,55.02
2022-11-24T13:43:22.747Z,54.73
2022-11-24T13:45:51.728Z,54.33
2022-11-24T13:48:52.734Z,54.27
2022-11-24T13:51:24.678Z,54.40
2022-11-24T13:53:53.417Z,54.49
2022-11-24T13:56:23.943Z,54.36
2022-11-24T13:58:53.503Z,54.10
2022-11-24T14:01:25.376Z,54.07
2022-11-24T14:04:33.358Z,53.95
2022-11-24T14:07:09.746Z,53.04
2022-11-24T14:09:50.980Z,54.50
2022-11-24T14:12:19.499Z,54.24
2022-11-24T14:14:47.643Z,55.04
2022-11-24T14:17:20.556Z,55.43
2022-11-24T14:19:48.646Z,55.39
2022-11-24T14:22:19.165Z,56.14
2022-11-24T14:24:54.089Z,56.44
2022-11-24T14:27:34.468Z,56.49
2022-11-24T14:30:02.169Z,57.13
2022-11-24T14:32:29.169Z,57.14
2022-11-24T14:34:56.011Z,57.27
2022-11-24T14:37:23.954Z,57.60
2022-11-24T14:39:50.514Z,57.86
2022-11-24T14:42:20.063Z,58.21
2022-11-24T14:44:50.273Z,58.09
2022-11-24T14:47:27.161Z,58.80
2022-11-24T14:49:58.383Z,59.07
2022-11-24T14:52:26.626Z,58.71
2022-11-24T14:58:01.546Z,59.46
2022-11-24T15:00:30.670Z,59.63
2022-11-24T15:03:19.381Z,60.28
2022-11-24T15:05:54.942Z,60.07
2022-11-24T15:08:23.141Z,60.67
2022-11-24T15:10:56.687Z,60.80
2022-11-24T15:13:25.535Z,61.06
2022-11-24T15:16:02.456Z,60.96
2022-11-24T15:18:36.392Z,61.08
2022-11-24T15:21:03.427Z,61.31
2022-11-24T15:23:32.477Z,61.48
2022-11-24T15:26:29.025Z,62.13
2022-11-24T15:28:59.377Z,61.97
2022-11-24T15:31:25.908Z,62.55
2022-11-24T15:33:52.515Z,62.34
2022-11-24T15:36:18.997Z,62.61
2022-11-24T15:38:45.462Z,63.28
2022-11-24T15:41:20.214Z,63.03
2022-11-24T15:43:47.246Z,63.41
2022-11-24T15:46:15.207Z,63.45
2022-11-24T15:48:49.986Z,63.13
2022-11-24T15:51:16.561Z,63.74
2022-11-24T15:53:49.519Z,63.89
2022-11-24T15:56:26.343Z,63.85
2022-11-24T15:58:55.402Z,63.65
2022-11-24T16:01:42.037Z,63.58
2022-11-24T16:04:08.769Z,63.71
2022-11-24T16:06:36.808Z,63.50
2022-11-24T16:12:40.739Z,64.15
2022-11-24T16:15:08.146Z,63.74
2022-11-24T16:17:36.113Z,64.12
2022-11-24T16:20:02.766Z,64.28
2022-11-24T16:22:29.362Z,64.40
2022-11-24T16:25:29.159Z,64.29
2022-11-24T16:27:55.736Z,64.45
2022-11-24T16:30:22.293Z,64.26
2022-11-24T16:32:50.111Z,64.78
2022-11-24T16:35:17.052Z,64.70
2022-11-24T16:37:43.514Z,64.70
2022-11-24T16:40:10.821Z,64.83
2022-11-24T16:42:37.391Z,65.14
2022-11-24T16:45:04.412Z,64.59
2022-11-24T16:47:38.420Z,64.24
2022-11-24T16:50:07.923Z,64.58
2022-11-24T16:52:34.541Z,64.31
2022-11-24T16:55:01.034Z,64.54
2022-11-24T16:57:27.596Z,64.80
2022-11-24T16:59:54.118Z,64.09
2022-11-24T17:02:20.684Z,64.83
2022-11-24T17:04:47.242Z,64.56
2022-11-24T17:07:15.135Z,64.19
2022-11-24T17:09:41.648Z,64.49
2022-11-24T17:12:08.302Z,64.95
2022-11-24T17:14:35.149Z,64.75
2022-11-24T17:17:01.998Z,64.73
2022-11-24T17:19:29.538Z,64.80
2022-11-24T17:21:56.024Z,64.80
2022-11-24T17:24:23.884Z,64.86
2022-11-24T17:26:50.801Z,65.25
2022-11-24T17:29:17.482Z,65.42
2022-11-24T17:31:45.605Z,64.62
2022-11-24T17:34:12.655Z,64.82
2022-11-24T17:36:39.167Z,64.87
2022-11-24T17:39:10.738Z,64.60
2022-11-24T17:41:40.660Z,64.64
2022-11-24T17:44:09.915Z,64.60
2022-11-24T17:46:36.581Z,64.54
2022-11-24T17:49:03.313Z,64.67
2022-11-24T17:51:29.860Z,65.14
2022-11-24T17:53:56.340Z,65.20
2022-11-24T17:56:24.745Z,65.30
2022-11-24T17:58:53.710Z,65.11
2022-11-24T18:01:20.964Z,65.68
2022-11-24T18:03:50.522Z,65.58
2022-11-24T18:06:20.185Z,65.86
2022-11-24T18:08:47.332Z,65.18
2022-11-24T18:11:15.770Z,65.04
2022-11-24T18:13:58.464Z,64.93
2022-11-24T18:16:28.483Z,64.84
2022-11-24T18:19:07.692Z,64.96
2022-11-24T18:21:35.864Z,64.42
2022-11-24T18:24:02.354Z,64.54
2022-11-24T18:26:28.860Z,64.49
2022-11-24T18:28:55.410Z,65.03
2022-11-24T18:31:21.961Z,64.75
2022-11-24T18:33:49.802Z,64.71
2022-11-24T18:36:18.521Z,64.53
2022-11-24T18:38:45.321Z,64.71
2022-11-24T18:41:24.724Z,65.21
2022-11-24T18:47:50.897Z,65.30
2022-11-24T18:50:18.962Z,65.41
2022-11-24T18:52:45.785Z,65.18
2022-11-24T18:55:12.374Z,66.05
2022-11-24T18:57:39.030Z,66.27
2022-11-24T19:00:10.927Z,66.06
2022-11-24T19:02:37.662Z,65.83
2022-11-24T19:05:38.732Z,66.01
2022-11-24T19:11:50.350Z,66.17
2022-11-24T19:17:58.185Z,66.35
2022-11-24T19:20:24.710Z,66.17
2022-11-24T19:22:52.648Z,65.87
2022-11-24T19:25:20.324Z,65.58
2022-11-24T19:27:47.226Z,65.91
2022-11-24T19:33:44.385Z,64.97
2022-11-24T19:36:13.947Z,64.99
2022-11-24T19:38:42.898Z,65.26
2022-11-24T19:41:11.589Z,65.02
2022-11-24T19:43:39.125Z,65.22
2022-11-24T19:46:10.226Z,65.32
2022-11-24T19:48:38.071Z,65.14
2022-11-24T19:51:09.971Z,64.67
2022-11-24T19:53:39.394Z,65.24
2022-11-24T19:56:08.706Z,65.88
2022-11-24T19:58:37.094Z,65.81
2022-11-24T20:01:07.625Z,65.81
2022-11-24T20:03:34.887Z,65.47
2022-11-24T20:06:04.812Z,65.82
2022-11-24T20:08:34.610Z,65.51
2022-11-24T20:11:06.672Z,66.02
2022-11-24T20:13:36.561Z,66.10
2022-11-24T20:16:04.234Z,65.79
2022-11-24T20:18:44.068Z,65.96
2022-11-24T20:21:18.900Z,66.23
2022-11-24T20:24:04.770Z,66.07
2022-11-24T20:26:58.110Z,66.50
2022-11-24T20:29:31.276Z,66.65
2022-11-24T20:32:20.548Z,66.46
2022-11-24T20:34:47.274Z,66.22
2022-11-24T20:37:15.914Z,66.23
2022-11-24T20:39:42.425Z,66.43
2022-11-24T20:42:08.889Z,66.33
2022-11-24T20:44:37.037Z,66.39
2022-11-24T20:47:03.804Z,66.16
2022-11-24T20:49:30.333Z,66.34
2022-11-24T20:51:56.927Z,66.47
2022-11-24T20:54:23.759Z,66.65
2022-11-24T20:56:50.256Z,66.62
2022-11-24T20:59:20.219Z,66.50
2022-11-24T21:01:49.240Z,66.56
2022-11-24T21:04:18.732Z,66.96
2022-11-24T21:06:45.274Z,67.11
2022-11-24T21:09:11.812Z,66.72
2022-11-24T21:11:38.973Z,66.60
2022-11-24T21:14:06.780Z,66.85
2022-11-24T21:16:34.868Z,66.92
2022-11-24T21:19:04.721Z,66.80
2022-11-24T21:21:33.766Z,67.00
2022-11-24T21:24:00.473Z,67.29
2022-11-24T21:26:27.002Z,66.95
2022-11-24T21:28:53.539Z,67.02
2022-11-24T21:31:21.232Z,67.56
2022-11-24T21:33:49.802Z,67.58
2022-11-24T21:36:20.543Z,67.82
2022-11-24T21:38:50.454Z,67.62
2022-11-24T21:41:17.428Z,67.57
2022-11-24T21:43:43.960Z,67.77
2022-11-24T21:46:11.247Z,67.55
2022-11-24T21:48:39.246Z,67.66
2022-11-24T21:51:07.678Z,67.74
2022-11-24T21:53:37.272Z,67.35
2022-11-24T21:56:05.733Z,67.08
2022-11-24T21:58:33.551Z,67.20
2022-11-24T22:01:04.642Z,66.64
2022-11-24T22:03:31.228Z,66.28
2022-11-24T22:05:59.229Z,66.24
2022-11-24T22:08:28.030Z,65.84
2022-11-24T22:11:00.518Z,66.40
2022-11-24T22:13:27.729Z,66.15
2022-11-24T22:16:00.153Z,65.95
2022-11-24T22:18:29.167Z,66.46
2022-11-24T22:20:55.802Z,65.12
2022-11-24T22:23:22.294Z,66.17
2022-11-24T22:25:48.846Z,66.17
2022-11-24T22:28:16.684Z,66.60
2022-11-24T22:30:43.925Z,66.18
2022-11-24T22:33:10.426Z,66.63
2022-11-24T22:35:36.872Z,66.38
2022-11-24T22:38:03.341Z,66.34
2022-11-24T22:40:29.869Z,66.35
2022-11-24T22:42:57.827Z,65.97
2022-11-24T22:45:25.691Z,66.24
2022-11-24T22:47:53.815Z,66.26
2022-11-24T22:50:20.885Z,66.12
2022-11-24T22:52:49.419Z,66.59
2022-11-24T22:55:16.113Z,66.16
2022-11-24T22:57:47.447Z,66.05
2022-11-24T23:00:15.925Z,66.47
2022-11-24T23:02:43.819Z,65.87
2022-11-24T23:05:10.458Z,65.44
2022-11-24T23:07:39.193Z,65.77
2022-11-24T23:10:07.010Z,66.00
2022-11-24T23:12:33.506Z,66.16
2022-11-24T23:14:59.961Z,65.81
2022-11-24T23:17:26.498Z,65.72
2022-11-24T23:19:54.358Z,66.08
2022-11-24T23:22:20.843Z,66.10
2022-11-24T23:24:47.347Z,65.74
2022-11-24T23:27:14.310Z,65.92
2022-11-24T23:29:40.842Z,65.98
2022-11-24T23:32:07.314Z,65.71
2022-11-24T23:34:34.071Z,65.91
2022-11-24T23:37:02.141Z,65.80
2022-11-24T23:39:28.606Z,65.69
2022-11-24T23:41:55.150Z,66.24
2022-11-24T23:44:21.609Z,65.97
2022-11-24T23:46:48.083Z,66.09
2022-11-24T23:49:14.548Z,65.52
2022-11-24T23:51:41.057Z,65.52
2022-11-24T23:54:09.275Z,65.78
2022-11-24T23:56:35.743Z,66.06
2022-11-24T23:59:03.785Z,65.45
